Big Bear Station Historical Data
Daily Summary for July 2, 2019 Units:  English    Metric   Both
Next Day »
Daily Weekly Monthly Yearly Custom
  High: Low: Average:
Temperature: 79.9 °F 52.5 °F 68.6 °F
Dew Point: 41.4 °F 22.9 °F 33.1 °F
Humidity: 48% 17% 28%
Wind Speed: 5.8mph 0mph 0.6mph
Wind Gust: -999mph - -
Wind- - NW
Pressure: 23.55 in 23.50 in -
Precipitation: 0 in    
Historical Graphs
 
 
Tabular Data for July 2, 2019
Time Temperature Dew Point Pressure Wind Wind Speed Wind Gust Humidity Rainfall Rate (Hourly)
13:01 77.4 °F 36.7 °F 23.55 in Calm   -999 mph 23% 0.00 in
13:17 77.2 °F 37.6 °F 23.55 in Calm   -999 mph 24% 0.00 in
13:32 78.1 °F 39.4 °F 23.55 in Calm   -999 mph 25% 0.00 in
13:47 78.3 °F 37.5 °F 23.55 in NW 5.8 mph -999 mph 23% 0.00 in
14:02 79.3 °F 38.3 °F 23.55 in NW 5.8 mph -999 mph 23% 0.00 in
14:18 78.1 °F 37.3 °F 23.54 in Calm   -999 mph 23% 0.00 in
14:33 79.9 °F 35.2 °F 23.54 in Calm   -999 mph 20% 0.00 in
14:48 78.3 °F 29.9 °F 23.54 in NW 4.7 mph -999 mph 17% 0.00 in
15:03 77.5 °F 32 °F 23.54 in Calm   -999 mph 19% 0.00 in
15:19 76.6 °F 31.3 °F 23.54 in Calm   -999 mph 19% 0.00 in
15:34 78.1 °F 33.8 °F 23.53 in West 4.7 mph -999 mph 20% 0.00 in
15:49 76.8 °F 33.9 °F 23.53 in Calm   -999 mph 21% 0.00 in
16:04 77.5 °F 33.3 °F 23.53 in Calm   -999 mph 20% 0.00 in
16:19 77 °F 32.9 °F 23.52 in Calm   -999 mph 20% 0.00 in
16:35 76.5 °F 32.4 °F 23.52 in Calm   -999 mph 20% 0.00 in
16:50 78.6 °F 34.2 °F 23.52 in Calm   -999 mph 20% 0.00 in
17:05 78.4 °F 35.2 °F 23.52 in Calm   -999 mph 21% 0.00 in
17:21 79.9 °F 35.2 °F 23.52 in NW 3.7 mph -999 mph 20% 0.00 in
17:36 75 °F 29.9 °F 23.52 in Calm   -999 mph 19% 0.00 in
17:51 76.8 °F 35.1 °F 23.52 in Calm   -999 mph 22% 0.00 in
18:06 76.5 °F 37 °F 23.51 in Calm   -999 mph 24% 0.00 in
18:22 77 °F 34.1 °F 23.51 in Calm   -999 mph 21% 0.00 in
18:37 75.6 °F 32.9 °F 23.51 in Calm   -999 mph 21% 0.00 in
18:52 76.3 °F 36.9 °F 23.51 in Calm   -999 mph 24% 0.00 in
19:07 73.9 °F 38.7 °F 23.51 in Calm   -999 mph 28% 0.00 in
19:22 68.7 °F 38.4 °F 23.51 in Calm   -999 mph 33% 0.00 in
19:38 63.9 °F 37.1 °F 23.51 in Calm   -999 mph 37% 0.00 in
19:53 61.2 °F 41.4 °F 23.50 in Calm   -999 mph 48% 0.00 in
20:08 59.9 °F 40.2 °F 23.50 in Calm   -999 mph 48% 0.00 in
20:23 58.6 °F 38.4 °F 23.50 in Calm   -999 mph 47% 0.00 in
20:38 57.7 °F 35.9 °F 23.50 in Calm   -999 mph 44% 0.00 in
20:54 57.6 °F 34.7 °F 23.50 in Calm   -999 mph 42% 0.00 in
21:09 57.2 °F 32.5 °F 23.50 in Calm   -999 mph 39% 0.00 in
21:24 56.7 °F 29.3 °F 23.51 in Calm   -999 mph 35% 0.00 in
21:39 55.9 °F 27.9 °F 23.51 in Calm   -999 mph 34% 0.00 in
21:55 55.8 °F 25.6 °F 23.51 in Calm   -999 mph 31% 0.00 in
22:10 55.2 °F 25.1 °F 23.51 in Calm   -999 mph 31% 0.00 in
22:25 54.5 °F 22.9 °F 23.51 in Calm   -999 mph 29% 0.00 in
22:40 54.5 °F 23.7 °F 23.51 in Calm   -999 mph 30% 0.00 in
22:55 54.1 °F 24.1 °F 23.51 in Calm   -999 mph 31% 0.00 in
23:11 53.2 °F 26.2 °F 23.51 in Calm   -999 mph 35% 0.00 in
23:26 53.6 °F 27.3 °F 23.51 in Calm   -999 mph 36% 0.00 in
23:41 52.5 °F 27 °F 23.51 in Calm   -999 mph 37% 0.00 in
23:56 53.1 °F 27.5 °F 23.50 in Calm   -999 mph 37% 0.00 in
Big Bear CA Weather